Time;durP1;ratioP1;P1;durP2;ratioP2;P2;SDS_P1;SDS_P2;PMS_P1;PMS_P2;Temp;Humidity;BMP_temperature;BMP_pressure;BME280_temperature;BME280_humidity;BME280_pressure;Samples;Min_cycle;Max_cycle;Signal;HPM_P1;HPM_P2
2021/12/27 00:02:00;;;;;;;38.90;18.98;;;;;;;8.53;74.01;97974.06;5188973;28;20049;-67
2021/12/27 00:04:50;;;;;;;30.17;17.80;;;;;;;9.01;72.43;97983.25;5191170;28;20072;-69
2021/12/27 00:07:43;;;;;;;31.73;17.00;;;;;;;9.01;73.43;97977.97;5191424;28;20042;-69
2021/12/27 00:10:36;;;;;;;34.22;17.80;;;;;;;8.85;73.09;97957.56;5191169;28;20175;-68
2021/12/27 00:13:30;;;;;;;30.23;16.63;;;;;;;8.14;76.27;97966.50;5194920;28;21763;-67
2021/12/27 00:16:20;;;;;;;31.08;17.95;;;;;;;8.68;74.46;97967.22;5194092;28;20100;-69
2021/12/27 00:19:10;;;;;;;32.92;18.27;;;;;;;8.74;74.25;97965.75;5190299;28;20143;-68
2021/12/27 00:22:00;;;;;;;33.20;17.65;;;;;;;8.89;74.07;97962.34;5194636;28;20500;-68
2021/12/27 00:24:52;;;;;;;34.38;18.38;;;;;;;8.62;74.48;97962.56;5193574;28;20041;-69
2021/12/27 00:27:42;;;;;;;35.70;18.33;;;;;;;8.61;75.21;97974.94;5178576;28;20136;-68
2021/12/27 00:30:32;;;;;;;38.00;18.80;;;;;;;8.53;75.63;97968.78;5193098;28;20653;-67
2021/12/27 00:33:23;;;;;;;33.53;18.02;;;;;;;8.14;77.27;97954.09;5190089;28;20052;-69
2021/12/27 00:36:14;;;;;;;32.80;17.92;;;;;;;8.30;77.02;97968.41;5197575;28;20189;-68
2021/12/27 00:39:06;;;;;;;34.50;18.48;;;;;;;8.70;75.88;97949.38;5189668;28;20053;-67
2021/12/27 00:41:56;;;;;;;31.65;18.60;;;;;;;8.96;74.31;97957.25;5192784;28;20064;-69
2021/12/27 00:44:46;;;;;;;32.40;18.15;;;;;;;8.93;74.20;97961.03;5193717;28;20060;-68
2021/12/27 00:47:37;;;;;;;31.40;18.15;;;;;;;8.92;73.11;97955.94;5186262;28;20179;-69
2021/12/27 00:50:28;;;;;;;38.17;19.65;;;;;;;8.68;75.48;97962.75;5194415;28;20052;-69
2021/12/27 00:53:18;;;;;;;34.75;19.33;;;;;;;8.72;73.89;97936.84;5185054;28;20526;-68
2021/12/27 00:56:09;;;;;;;36.17;18.88;;;;;;;8.76;74.03;97961.97;5193039;28;20190;-69
2021/12/27 00:58:59;;;;;;;33.33;18.58;;;;;;;8.81;74.55;97974.72;5192077;28;20188;-69
2021/12/27 01:01:49;;;;;;;34.63;18.95;;;;;;;8.75;74.40;97970.06;5183973;28;20052;-68
2021/12/27 01:04:40;;;;;;;35.88;19.83;;;;;;;8.71;74.24;97966.91;5192796;28;20061;-68
2021/12/27 01:07:30;;;;;;;32.80;17.77;;;;;;;8.53;73.92;97953.75;5195881;28;20041;-68
2021/12/27 01:13:22;;;;;;;35.90;18.20;;;;;;;8.53;74.40;97937.88;5188157;28;20061;-68
2021/12/27 01:16:14;;;;;;;35.42;18.77;;;;;;;8.65;73.22;97962.25;5194729;28;20072;-68
2021/12/27 01:19:06;;;;;;;33.72;19.23;;;;;;;8.56;74.08;97952.59;5189513;28;20527;-68
2021/12/27 01:21:55;;;;;;;31.25;17.00;;;;;;;8.54;74.29;97954.56;5193913;28;20577;-68
2021/12/27 01:24:45;;;;;;;30.83;17.85;;;;;;;8.50;74.00;97942.66;5189068;28;20045;-68
2021/12/27 01:27:36;;;;;;;28.85;17.48;;;;;;;8.55;74.00;97945.69;5191525;28;20660;-68
2021/12/27 01:30:26;;;;;;;34.65;17.88;;;;;;;8.58;73.91;97954.13;5198986;28;20120;-68
2021/12/27 01:33:19;;;;;;;33.08;17.75;;;;;;;8.67;73.88;97958.44;5194768;28;20068;-68
2021/12/27 01:36:10;;;;;;;29.33;16.85;;;;;;;8.58;73.74;97954.13;5192380;28;20420;-68
2021/12/27 01:39:02;;;;;;;27.80;15.90;;;;;;;8.47;74.20;97959.66;5193446;28;20052;-68
2021/12/27 01:41:54;;;;;;;28.55;16.42;;;;;;;8.60;74.00;97956.59;5186702;28;20064;-68
2021/12/27 01:44:45;;;;;;;28.52;16.42;;;;;;;8.54;74.44;97934.25;5196445;28;20526;-68
2021/12/27 01:47:35;;;;;;;30.73;16.92;;;;;;;8.77;74.22;97947.75;5187554;28;20096;-68
2021/12/27 01:50:27;;;;;;;28.23;15.40;;;;;;;8.70;74.01;97959.94;5193398;28;20321;-68
2021/12/27 01:53:18;;;;;;;24.55;15.30;;;;;;;8.60;74.19;97960.06;5190971;28;20183;-68
2021/12/27 01:56:10;;;;;;;26.23;15.15;;;;;;;8.56;74.15;97949.97;5193180;28;20099;-68
2021/12/27 01:59:01;;;;;;;27.50;15.63;;;;;;;8.56;73.96;97947.31;5193736;28;20064;-68
2021/12/27 02:01:51;;;;;;;27.15;15.98;;;;;;;8.56;73.74;97953.44;5191842;28;20056;-68
2021/12/27 02:04:41;;;;;;;24.98;15.52;;;;;;;8.44;72.71;97954.69;5196440;28;20048;-68
2021/12/27 02:07:31;;;;;;;23.65;14.27;;;;;;;8.27;73.77;97945.78;5187367;28;20195;-68
2021/12/27 02:10:21;;;;;;;23.88;14.43;;;;;;;8.29;73.14;97956.22;5201529;28;20512;-68
2021/12/27 02:13:12;;;;;;;31.15;15.95;;;;;;;8.20;73.34;97944.75;5185258;28;20686;-68
2021/12/27 02:16:05;;;;;;;27.02;16.20;;;;;;;8.10;73.09;97952.75;5200792;28;20042;-68
2021/12/27 02:18:55;;;;;;;31.65;15.75;;;;;;;7.99;72.41;97955.66;5188335;28;20049;-68
2021/12/27 02:21:45;;;;;;;24.85;15.73;;;;;;;7.93;73.54;97945.72;5198156;28;20053;-69
2021/12/27 02:24:35;;;;;;;28.58;15.85;;;;;;;7.60;73.48;97897.94;5199285;28;20049;-66
2021/12/27 02:27:25;;;;;;;29.05;16.27;;;;;;;7.79;73.67;97917.22;5176847;28;20526;-67
2021/12/27 02:30:17;;;;;;;34.15;16.50;;;;;;;8.00;74.00;97941.47;5193308;28;20057;-67
2021/12/27 02:33:09;;;;;;;30.48;16.33;;;;;;;7.94;73.64;97929.69;5199764;28;20118;-66
2021/12/27 02:36:00;;;;;;;28.50;16.00;;;;;;;7.72;73.97;97919.66;5196389;28;20401;-67
2021/12/27 02:38:50;;;;;;;34.63;17.10;;;;;;;7.89;74.53;97925.88;5201731;28;20048;-67
2021/12/27 02:41:40;;;;;;;29.85;16.27;;;;;;;8.06;74.44;97930.31;5192814;28;20049;-66
2021/12/27 02:44:30;;;;;;;32.42;17.17;;;;;;;7.94;74.41;97931.53;5196970;28;20072;-70
2021/12/27 02:47:21;;;;;;;34.15;18.58;;;;;;;7.95;73.97;97931.38;5180149;28;20202;-69
2021/12/27 02:50:11;;;;;;;33.50;17.92;;;;;;;8.05;73.83;97933.09;5187273;28;20072;-71
2021/12/27 02:53:03;;;;;;;34.63;17.88;;;;;;;7.90;74.74;97936.28;5181397;28;20050;-67
2021/12/27 02:55:55;;;;;;;35.55;17.92;;;;;;;7.96;73.86;97935.66;5189471;28;20060;-68
2021/12/27 02:58:47;;;;;;;32.63;18.40;;;;;;;7.90;74.31;97935.44;5196991;28;20099;-66
2021/12/27 03:01:37;;;;;;;35.20;18.92;;;;;;;7.94;74.30;97937.63;5197465;28;20215;-69
2021/12/27 03:04:34;;;;;;;53.53;19.00;;;;;;;7.87;74.30;97912.81;5192770;28;20543;-70
2021/12/27 03:07:24;;;;;;;52.28;19.23;;;;;;;7.96;74.24;97933.03;5198664;28;20084;-68
2021/12/27 03:10:17;;;;;;;33.78;17.92;;;;;;;7.82;73.91;97927.47;5196684;28;20508;-67
2021/12/27 03:13:13;;;;;;;38.28;19.02;;;;;;;7.73;74.58;97908.09;5189958;28;20634;-70
2021/12/27 03:16:11;;;;;;;31.98;17.98;;;;;;;7.84;74.34;97931.59;5194217;28;20413;-68
2021/12/27 03:19:02;;;;;;;35.03;17.25;;;;;;;7.79;74.01;97933.88;5196328;28;20038;-68
2021/12/27 03:21:52;;;;;;;33.22;18.08;;;;;;;7.70;74.66;97916.31;5196126;28;20057;-70
2021/12/27 03:24:45;;;;;;;32.28;18.27;;;;;;;7.82;73.98;97922.22;5194499;28;20049;-66
2021/12/27 03:27:35;;;;;;;32.95;18.73;;;;;;;7.82;74.16;97915.13;5197976;28;20052;-67
2021/12/27 03:30:26;;;;;;;30.95;18.13;;;;;;;7.82;74.19;97909.84;5196097;28;20132;-67
2021/12/27 03:33:21;;;;;;;33.10;17.17;;;;;;;7.48;73.58;97841.13;5197465;28;20416;-67
2021/12/27 03:36:11;;;;;;;31.20;17.17;;;;;;;7.94;73.21;97921.78;5182533;28;20044;-67
2021/12/27 03:39:03;;;;;;;30.02;17.45;;;;;;;7.95;74.04;97923.47;5189213;28;20474;-67
2021/12/27 03:41:53;;;;;;;28.08;16.98;;;;;;;7.82;74.21;97911.66;5187940;28;20104;-67
2021/12/27 03:44:44;;;;;;;29.67;18.23;;;;;;;8.00;74.53;97913.25;5194682;28;20048;-67
2021/12/27 03:47:36;;;;;;;39.53;19.02;;;;;;;8.03;74.19;97913.94;5199753;28;20179;-67
2021/12/27 03:50:26;;;;;;;30.42;17.77;;;;;;;7.97;73.98;97910.09;5194888;28;20160;-67
2021/12/27 03:53:16;;;;;;;27.63;16.02;;;;;;;7.93;74.02;97912.22;5181592;28;20135;-67
2021/12/27 03:56:08;;;;;;;29.85;17.45;;;;;;;7.88;73.84;97896.03;5195723;28;20125;-67
2021/12/27 03:59:19;;;;;;;33.70;17.63;;;;;;;8.08;73.93;97903.72;5175537;28;20147;-67
2021/12/27 04:02:10;;;;;;;32.28;17.38;;;;;;;8.40;72.61;97896.03;5187845;28;20103;-67
2021/12/27 04:05:00;;;;;;;30.45;17.48;;;;;;;8.21;72.73;97906.78;5191519;28;20127;-67
2021/12/27 04:08:01;;;;;;;34.00;17.27;;;;;;;8.04;73.54;97900.56;5191776;28;20049;-67
2021/12/27 04:10:52;;;;;;;31.20;17.02;;;;;;;7.80;74.19;97910.97;5195722;28;20458;-67
2021/12/27 04:13:43;;;;;;;40.55;19.60;;;;;;;7.74;75.35;97907.94;5192529;28;20111;-67
2021/12/27 04:16:33;;;;;;;33.45;18.38;;;;;;;7.76;74.95;97913.09;5187131;28;20057;-67
2021/12/27 04:19:23;;;;;;;37.28;18.90;;;;;;;7.96;75.25;97914.56;5197870;28;20533;-67
2021/12/27 04:22:13;;;;;;;30.58;17.45;;;;;;;7.93;73.66;97904.31;5192542;28;20177;-67
2021/12/27 04:25:04;;;;;;;36.10;19.35;;;;;;;7.84;74.40;97899.13;5193400;28;20157;-67
2021/12/27 04:27:53;;;;;;;30.80;16.98;;;;;;;7.82;73.75;97904.56;5196739;28;20052;-67
2021/12/27 04:30:43;;;;;;;36.63;17.60;;;;;;;7.74;73.45;97904.47;5193491;28;20037;-67
2021/12/27 04:33:33;;;;;;;29.05;16.02;;;;;;;7.59;73.51;97898.09;5191834;23;20512;-70
2021/12/27 04:36:24;;;;;;;33.45;15.93;;;;;;;7.62;74.55;97879.34;5178154;28;20136;-70
2021/12/27 04:39:14;;;;;;;29.00;16.30;;;;;;;7.75;73.65;97906.16;5177808;28;20042;-70
2021/12/27 04:42:06;;;;;;;27.75;15.35;;;;;;;7.78;73.24;97908.47;5175216;28;20057;-70
2021/12/27 04:44:58;;;;;;;28.80;16.65;;;;;;;7.76;73.89;97902.53;5192963;28;20044;-70
2021/12/27 04:47:49;;;;;;;31.25;16.83;;;;;;;7.74;74.49;97910.56;5186719;28;20062;-70
2021/12/27 04:50:39;;;;;;;28.48;16.25;;;;;;;7.74;73.89;97905.31;5189848;28;20396;-70
2021/12/27 04:53:29;;;;;;;29.95;15.50;;;;;;;7.69;74.36;97896.22;5173174;28;20574;-70
2021/12/27 04:56:20;;;;;;;34.50;16.95;;;;;;;7.77;74.44;97898.91;5183029;28;20153;-70
2021/12/27 04:59:10;;;;;;;30.20;15.73;;;;;;;7.88;74.27;97898.66;5188280;28;20048;-70
2021/12/27 05:01:59;;;;;;;22.80;14.13;;;;;;;8.10;73.51;97899.97;5180082;28;20061;-70
2021/12/27 05:04:50;;;;;;;26.83;13.13;;;;;;;8.15;73.40;97886.31;5185515;28;20092;-70
2021/12/27 05:07:40;;;;;;;24.85;14.13;;;;;;;8.16;73.66;97899.34;5170351;28;20073;-70
2021/12/27 05:10:31;;;;;;;26.33;13.98;;;;;;;8.19;74.14;97900.84;5189552;28;20660;-71
2021/12/27 05:13:21;;;;;;;25.38;14.55;;;;;;;8.26;73.33;97899.25;5183946;28;20049;-71
2021/12/27 05:16:11;;;;;;;22.67;12.93;;;;;;;8.35;74.09;97890.38;5167729;28;20719;-71
2021/12/27 05:19:02;;;;;;;21.60;12.90;;;;;;;8.50;73.17;97900.41;5188068;28;20044;-71
2021/12/27 05:21:52;;;;;;;29.85;15.93;;;;;;;8.32;74.46;97892.53;5185973;28;20056;-71
2021/12/27 05:24:42;;;;;;;28.20;16.48;;;;;;;8.30;73.78;97886.56;5189768;28;20127;-70
2021/12/27 05:27:32;;;;;;;27.67;16.75;;;;;;;8.15;73.82;97883.69;5181378;28;20044;-71
2021/12/27 05:30:38;;;;;;;26.98;16.23;;;;;;;8.14;74.31;97874.91;5182955;28;20042;-71
2021/12/27 05:33:29;;;;;;;26.00;16.30;;;;;;;8.02;74.01;97860.31;5178525;28;20056;-71
2021/12/27 05:36:19;;;;;;;25.67;15.35;;;;;;;8.11;73.44;97879.66;5177828;28;20226;-71
2021/12/27 05:39:10;;;;;;;28.48;17.90;;;;;;;8.01;74.11;97882.41;5193780;28;20071;-70
2021/12/27 05:42:00;;;;;;;28.92;16.10;;;;;;;8.02;73.54;97881.44;5192590;28;20080;-71
2021/12/27 05:44:51;;;;;;;31.35;17.67;;;;;;;8.01;73.73;97885.03;5180755;28;20085;-71
2021/12/27 05:47:41;;;;;;;29.65;16.77;;;;;;;8.00;74.07;97872.84;5182581;28;20516;-69
2021/12/27 05:50:32;;;;;;;29.08;16.85;;;;;;;7.96;74.10;97861.75;5185714;28;20771;-69
2021/12/27 05:53:22;;;;;;;18.60;12.25;;;;;;;8.33;73.70;97879.16;5184775;28;20131;-69
2021/12/27 05:56:12;;;;;;;16.20;9.88;;;;;;;8.52;73.41;97866.72;5184134;28;20068;-70
2021/12/27 05:59:02;;;;;;;16.38;10.50;;;;;;;8.54;73.43;97860.28;5181019;28;20196;-69
2021/12/27 06:01:52;;;;;;;18.27;10.73;;;;;;;8.62;73.04;97849.75;5184486;28;20133;-69
2021/12/27 06:04:43;;;;;;;18.90;11.40;;;;;;;8.64;73.41;97871.56;5181474;28;20531;-69
2021/12/27 06:07:33;;;;;;;24.40;15.27;;;;;;;8.46;72.66;97866.38;5187438;28;20038;-69
2021/12/27 06:10:23;;;;;;;27.13;15.18;;;;;;;8.45;73.31;97859.44;5167760;28;20050;-69
2021/12/27 06:13:13;;;;;;;15.70;9.80;;;;;;;8.56;73.67;97853.03;5184145;28;20046;-70
2021/12/27 06:16:04;;;;;;;18.05;10.57;;;;;;;8.63;73.44;97840.00;5183867;28;20048;-69
2021/12/27 06:18:55;;;;;;;18.50;10.35;;;;;;;8.68;73.30;97840.38;5184447;28;20179;-69
2021/12/27 06:21:45;;;;;;;17.60;10.60;;;;;;;8.69;73.03;97848.13;5184624;28;20081;-69
2021/12/27 06:24:35;;;;;;;14.23;9.32;;;;;;;8.61;73.00;97837.53;5184650;28;20052;-69
2021/12/27 06:27:24;;;;;;;13.70;9.15;;;;;;;8.68;72.48;97843.03;5183998;28;20045;-69
2021/12/27 06:30:15;;;;;;;18.98;9.45;;;;;;;8.71;72.56;97848.00;5185093;28;20061;-69
2021/12/27 06:33:06;;;;;;;14.43;9.43;;;;;;;8.54;73.77;97844.44;5181952;28;20519;-69
2021/12/27 06:35:57;;;;;;;15.07;9.75;;;;;;;8.70;72.61;97848.94;5183965;28;20038;-69
2021/12/27 06:38:47;;;;;;;14.45;9.65;;;;;;;8.75;71.56;97833.47;5174152;28;20100;-70
2021/12/27 06:41:37;;;;;;;13.45;9.18;;;;;;;8.30;72.34;97808.16;5191230;28;20049;-69
2021/12/27 06:44:27;;;;;;;13.00;8.45;;;;;;;8.37;72.07;97837.41;5193346;28;20103;-69
2021/12/27 06:47:18;;;;;;;19.80;8.73;;;;;;;8.31;73.28;97843.31;5188920;28;20449;-69
2021/12/27 06:50:11;;;;;;;13.30;8.05;;;;;;;8.30;71.99;97839.00;5170262;28;20072;-69
2021/12/27 06:53:02;;;;;;;14.27;8.70;;;;;;;8.23;72.54;97830.91;5185013;28;20111;-69
2021/12/27 06:55:52;;;;;;;12.45;8.63;;;;;;;8.15;72.55;97822.94;5180918;28;20093;-69
2021/12/27 06:58:42;;;;;;;15.15;8.45;;;;;;;8.32;71.47;97829.13;5184961;28;20061;-69
2021/12/27 07:01:32;;;;;;;14.52;8.63;;;;;;;8.22;72.80;97837.16;5182817;28;20432;-69
2021/12/27 07:04:22;;;;;;;13.73;8.27;;;;;;;8.21;71.61;97827.56;5186659;28;20103;-69
2021/12/27 07:07:13;;;;;;;13.43;8.00;;;;;;;8.12;71.90;97831.19;5181273;28;20144;-69
2021/12/27 07:10:05;;;;;;;12.13;7.97;;;;;;;7.94;72.98;97826.75;5190478;28;20503;-70
2021/12/27 07:12:56;;;;;;;16.48;8.38;;;;;;;8.07;72.88;97833.44;5191328;28;20053;-70
2021/12/27 07:15:46;;;;;;;13.73;8.88;;;;;;;7.75;74.04;97848.09;5183479;28;20052;-69
2021/12/27 07:18:36;;;;;;;16.25;10.13;;;;;;;7.70;74.42;97839.81;5169140;28;20462;-69
2021/12/27 07:21:26;;;;;;;17.15;10.02;;;;;;;7.78;74.16;97831.94;5183056;28;20340;-69
2021/12/27 07:24:16;;;;;;;16.70;10.18;;;;;;;7.67;74.62;97842.75;5166206;28;20144;-69
2021/12/27 07:27:06;;;;;;;19.10;10.48;;;;;;;8.04;73.73;97839.03;5180335;28;20044;-69
2021/12/27 07:29:57;;;;;;;17.10;11.00;;;;;;;7.95;73.63;97844.28;5178516;28;20053;-69
2021/12/27 07:32:47;;;;;;;18.40;11.45;;;;;;;7.86;73.58;97802.16;5182262;28;20053;-70
2021/12/27 07:35:37;;;;;;;19.80;10.40;;;;;;;7.65;74.55;97831.50;5183235;28;20060;-69
2021/12/27 07:38:27;;;;;;;17.52;11.25;;;;;;;7.76;74.69;97834.75;5181137;28;20187;-69
2021/12/27 07:41:17;;;;;;;50.53;17.85;;;;;;;8.02;74.63;97839.22;5179011;28;20042;-69
2021/12/27 07:44:08;;;;;;;20.05;11.45;;;;;;;7.91;74.14;97798.06;5171953;28;20272;-69
2021/12/27 07:46:58;;;;;;;18.27;11.73;;;;;;;8.29;72.82;97840.84;5181032;28;20034;-70
2021/12/27 07:49:48;;;;;;;17.60;11.73;;;;;;;8.30;73.03;97836.38;5181294;28;20517;-70
2021/12/27 07:52:38;;;;;;;19.67;11.25;;;;;;;8.08;73.80;97837.72;5180559;28;20053;-69
2021/12/27 07:55:29;;;;;;;18.52;11.95;;;;;;;8.22;73.81;97842.47;5174619;28;20056;-68
2021/12/27 07:58:18;;;;;;;18.63;11.60;;;;;;;8.43;72.76;97827.06;5179817;28;20531;-69
2021/12/27 08:01:08;;;;;;;18.58;11.95;;;;;;;8.67;72.68;97842.16;5181783;28;20686;-68
2021/12/27 08:03:59;;;;;;;24.35;12.32;;;;;;;8.85;70.45;97828.03;5184975;28;20523;-68
2021/12/27 08:06:50;;;;;;;15.95;11.00;;;;;;;8.96;70.83;97832.19;5186404;28;20045;-68
2021/12/27 08:09:40;;;;;;;20.55;11.57;;;;;;;8.85;70.83;97830.69;5180267;28;20483;-68
2021/12/27 08:12:31;;;;;;;16.10;10.70;;;;;;;8.56;71.23;97816.03;5159680;28;20056;-68
2021/12/27 08:15:21;;;;;;;15.93;10.55;;;;;;;8.64;71.01;97821.38;5164820;28;20073;-68
2021/12/27 08:18:11;;;;;;;19.77;11.65;;;;;;;8.59;71.79;97825.47;5166223;28;20461;-68
2021/12/27 08:21:01;;;;;;;17.52;10.48;;;;;;;8.57;71.16;97817.69;5187323;28;20056;-68
2021/12/27 08:23:52;;;;;;;18.50;11.27;;;;;;;8.65;71.84;97822.19;5177329;28;20076;-69
2021/12/27 08:26:43;;;;;;;18.70;11.23;;;;;;;8.78;71.47;97829.69;5181680;28;20049;-68
2021/12/27 08:29:33;;;;;;;18.88;11.70;;;;;;;8.68;71.34;97829.81;5182803;28;20053;-68
2021/12/27 08:32:23;;;;;;;18.05;10.95;;;;;;;8.78;71.48;97837.59;5173412;28;20685;-68
2021/12/27 08:35:14;;;;;;;25.70;11.32;;;;;;;8.76;71.93;97840.38;5180581;28;20050;-68
2021/12/27 08:38:04;;;;;;;18.83;11.18;;;;;;;8.76;71.67;97837.75;5174246;28;20752;-68
2021/12/27 08:40:54;;;;;;;20.27;11.63;;;;;;;8.75;71.53;97846.66;5184458;28;20053;-68
2021/12/27 08:43:44;;;;;;;20.80;12.10;;;;;;;8.88;71.57;97839.13;5180796;28;20049;-72
2021/12/27 08:46:34;;;;;;;15.70;10.82;;;;;;;9.28;70.24;97840.19;5179892;28;20053;-70
2021/12/27 08:49:25;;;;;;;18.23;11.65;;;;;;;9.22;69.95;97840.81;5181932;28;20155;-68
2021/12/27 08:52:15;;;;;;;19.45;11.30;;;;;;;9.13;70.74;97836.50;5183395;28;20056;-67
2021/12/27 08:55:05;;;;;;;19.02;11.25;;;;;;;9.10;71.77;97837.66;5182443;28;20646;-68
2021/12/27 08:57:55;;;;;;;18.80;11.90;;;;;;;9.29;70.82;97836.53;5184734;28;20527;-66
2021/12/27 09:00:51;;;;;;;18.98;11.82;;;;;;;9.55;69.71;97839.03;5170991;28;20175;-67
2021/12/27 09:03:41;;;;;;;17.52;11.15;;;;;;;9.51;70.90;97827.13;5185826;28;20159;-67
2021/12/27 09:06:34;;;;;;;16.70;10.13;;;;;;;9.40;69.70;97830.94;5171297;28;20421;-68
2021/12/27 09:09:23;;;;;;;20.23;9.90;;;;;;;9.59;70.42;97829.75;5175286;28;20143;-68
2021/12/27 09:12:13;;;;;;;17.70;11.00;;;;;;;9.64;69.96;97834.56;5175261;28;20163;-68
2021/12/27 09:15:04;;;;;;;18.63;11.65;;;;;;;9.52;70.02;97812.91;5174567;28;20049;-69
2021/12/27 09:17:54;;;;;;;24.50;14.07;;;;;;;9.51;69.96;97828.94;5174582;28;20046;-69
2021/12/27 09:20:45;;;;;;;19.75;11.80;;;;;;;9.47;69.79;97814.38;5177970;28;20412;-69
2021/12/27 09:23:35;;;;;;;16.70;11.77;;;;;;;9.69;70.03;97815.53;5163857;28;20046;-69
2021/12/27 09:26:25;;;;;;;18.30;11.27;;;;;;;9.60;70.52;97809.41;5177666;28;20049;-70
2021/12/27 09:29:15;;;;;;;17.58;10.70;;;;;;;9.38;69.70;97811.75;5177346;28;20388;-68
2021/12/27 09:32:06;;;;;;;14.80;10.30;;;;;;;9.25;70.98;97811.41;5177805;28;20049;-68
2021/12/27 09:34:56;;;;;;;16.65;9.80;;;;;;;9.33;71.04;97819.34;5167343;28;20052;-68
2021/12/27 09:37:46;;;;;;;12.40;8.15;;;;;;;8.99;71.04;97816.00;5187623;28;20184;-68
2021/12/27 09:40:36;;;;;;;14.32;8.50;;;;;;;8.97;71.58;97799.47;5187483;28;20049;-69
2021/12/27 09:43:27;;;;;;;12.55;7.55;;;;;;;8.62;72.92;97781.06;5167074;28;20049;-68
2021/12/27 09:46:18;;;;;;;11.43;8.02;;;;;;;8.64;74.04;97809.94;5187532;28;20124;-69
2021/12/27 09:49:12;;;;;;;11.32;7.47;;;;;;;8.71;72.96;97808.34;5166241;28;20221;-68
2021/12/27 09:52:03;;;;;;;10.65;7.40;;;;;;;8.79;71.80;97799.59;5176329;28;20042;-69
2021/12/27 09:54:53;;;;;;;11.95;6.35;;;;;;;8.83;73.04;97803.56;5178192;28;20054;-68
2021/12/27 09:57:44;;;;;;;10.20;6.63;;;;;;;9.51;69.68;97798.03;5180302;28;20034;-69
2021/12/27 10:00:34;;;;;;;10.40;7.25;;;;;;;9.16;71.06;97788.59;5178022;28;20088;-68
2021/12/27 10:03:25;;;;;;;9.60;6.40;;;;;;;9.38;69.91;97795.03;5177964;28;20054;-69
2021/12/27 10:06:16;;;;;;;11.75;6.68;;;;;;;9.22;71.37;97787.94;5174117;28;20172;-68
2021/12/27 10:09:06;;;;;;;13.07;6.78;;;;;;;9.53;70.52;97787.25;5179734;28;20437;-69
2021/12/27 10:11:56;;;;;;;12.27;7.05;;;;;;;9.88;69.13;97778.94;5183959;28;20591;-68
2021/12/27 10:14:47;;;;;;;11.77;6.95;;;;;;;9.36;71.42;97768.75;5168859;28;22111;-70
2021/12/27 10:17:37;;;;;;;10.25;6.95;;;;;;;9.71;69.67;97776.50;5174806;28;20053;-69
2021/12/27 10:20:28;;;;;;;11.45;6.90;;;;;;;9.75;69.77;97780.47;5184815;28;20223;-69
2021/12/27 10:23:19;;;;;;;8.27;6.63;;;;;;;10.12;68.93;97762.13;5166308;28;20447;-69
2021/12/27 10:26:16;;;;;;;10.95;7.15;;;;;;;10.54;67.71;97766.31;5182203;28;20046;-69
2021/12/27 10:29:11;;;;;;;10.73;6.97;;;;;;;10.48;67.78;97763.53;5182904;28;20053;-69
2021/12/27 10:32:04;;;;;;;14.00;8.00;;;;;;;10.57;68.89;97762.50;5177538;28;20983;-68
2021/12/27 10:34:54;;;;;;;10.77;6.60;;;;;;;10.78;68.38;97745.97;5177902;28;20114;-68
2021/12/27 10:38:22;;;;;;;8.50;5.80;;;;;;;10.33;68.10;97752.81;5167118;28;20415;-69
2021/12/27 10:41:13;;;;;;;10.00;6.32;;;;;;;10.66;68.12;97742.91;5169668;28;20041;-68
2021/12/27 10:44:03;;;;;;;9.88;5.95;;;;;;;10.51;67.09;97747.28;5184448;28;20534;-69
2021/12/27 10:47:24;;;;;;;9.05;6.47;;;;;;;10.69;67.68;97741.69;5184859;28;20052;-69
2021/12/27 10:50:18;;;;;;;9.88;6.07;;;;;;;10.61;66.63;97734.63;5179167;28;20115;-69
2021/12/27 10:53:14;;;;;;;6.95;4.75;;;;;;;10.24;67.63;97736.13;5184711;28;20058;-69
2021/12/27 10:56:04;;;;;;;8.15;5.45;;;;;;;10.36;67.81;97741.88;5181880;28;20104;-68
2021/12/27 10:58:56;;;;;;;6.97;4.80;;;;;;;10.61;66.69;97734.63;5183618;28;20042;-68
2021/12/27 11:01:48;;;;;;;8.65;5.07;;;;;;;10.69;66.53;97737.22;5184130;28;20137;-69
2021/12/27 11:04:38;;;;;;;7.78;5.40;;;;;;;10.55;66.99;97719.41;5188629;28;20049;-69
2021/12/27 11:07:28;;;;;;;9.18;5.50;;;;;;;11.30;65.81;97737.28;5181010;28;20049;-69
2021/12/27 11:10:20;;;;;;;9.27;5.63;;;;;;;10.95;66.55;97725.44;5179555;28;20222;-69
2021/12/27 11:13:11;;;;;;;8.48;5.38;;;;;;;10.79;66.63;97739.66;5191070;28;20518;-69
2021/12/27 11:16:02;;;;;;;7.47;5.15;;;;;;;11.16;66.48;97732.75;5170884;28;20056;-69
2021/12/27 11:18:55;;;;;;;9.65;4.68;;;;;;;11.26;64.14;97726.22;5182909;28;20053;-69
2021/12/27 11:21:48;;;;;;;6.97;4.32;;;;;;;11.47;63.38;97724.69;5184411;28;20130;-69
2021/12/27 11:24:39;;;;;;;7.90;4.22;;;;;;;11.61;63.38;97728.38;5179539;28;20156;-70
2021/12/27 11:27:33;;;;;;;6.32;4.05;;;;;;;11.35;63.05;97720.81;5182914;28;20065;-70
2021/12/27 11:30:26;;;;;;;6.18;4.28;;;;;;;10.50;65.17;97711.19;5181036;28;20054;-70
2021/12/27 11:33:20;;;;;;;8.20;4.10;;;;;;;10.95;64.39;97718.31;5154893;28;20058;-69
2021/12/27 11:36:10;;;;;;;7.93;4.40;;;;;;;10.64;65.18;97713.06;5180649;28;20050;-69
2021/12/27 11:39:17;;;;;;;6.70;4.45;;;;;;;10.99;64.67;97702.88;5175471;28;20046;-69
2021/12/27 11:42:10;;;;;;;9.52;3.83;;;;;;;10.58;65.62;97697.88;5179678;28;20443;-69
2021/12/27 11:45:00;;;;;;;6.30;3.50;;;;;;;10.95;65.10;97699.75;5160641;28;20054;-69
2021/12/27 11:48:09;;;;;;;7.28;4.68;;;;;;;10.96;64.13;97700.56;5180139;28;20099;-69
2021/12/27 11:50:59;;;;;;;7.43;4.13;;;;;;;10.80;65.01;97697.06;5178753;28;20116;-69
2021/12/27 11:53:54;;;;;;;6.40;4.50;;;;;;;11.31;63.98;97685.03;5178194;28;20057;-69
2021/12/27 11:56:47;;;;;;;7.18;4.18;;;;;;;11.20;63.93;97699.56;5175974;28;20045;-68
2021/12/27 11:59:42;;;;;;;7.47;4.78;;;;;;;11.50;62.71;97685.34;5175475;28;20196;-69
2021/12/27 12:02:32;;;;;;;8.30;4.60;;;;;;;11.40;62.73;97690.09;5177931;28;20069;-70
2021/12/27 12:05:39;;;;;;;6.63;4.03;;;;;;;10.81;65.32;97674.03;5167958;28;20053;-69
2021/12/27 12:08:35;;;;;;;5.75;3.97;;;;;;;11.28;63.55;97679.06;5177630;28;20442;-69
2021/12/27 12:11:31;;;;;;;6.57;4.07;;;;;;;10.97;64.43;97687.16;5180351;28;20084;-69
2021/12/27 12:14:27;;;;;;;4.50;3.45;;;;;;;10.84;64.89;97665.72;5178865;28;20053;-69
2021/12/27 12:17:41;;;;;;;6.30;4.32;;;;;;;10.47;65.88;97663.84;5181130;28;20041;-69
2021/12/27 12:20:36;;;;;;;6.85;4.55;;;;;;;10.47;65.93;97655.88;5169349;28;20045;-69
2021/12/27 12:23:26;;;;;;;6.75;4.45;;;;;;;10.35;66.69;97652.78;5180523;28;20061;-71
2021/12/27 12:26:16;;;;;;;8.70;5.00;;;;;;;10.31;66.33;97630.31;5166020;28;20050;-73
2021/12/27 12:29:07;;;;;;;5.22;4.03;;;;;;;10.90;65.48;97654.41;5162422;28;20049;-70
2021/12/27 12:32:00;;;;;;;9.60;4.40;;;;;;;10.79;65.45;97653.00;5166754;28;20403;-70
2021/12/27 12:34:50;;;;;;;6.03;4.65;;;;;;;10.81;65.37;97628.94;5185682;28;20159;-71
2021/12/27 12:37:39;;;;;;;8.55;4.57;;;;;;;11.31;63.12;97655.84;5186222;28;20069;-70
2021/12/27 12:40:30;;;;;;;8.93;4.30;;;;;;;11.03;63.87;97659.09;5185786;28;20044;-69
2021/12/27 12:43:31;;;;;;;7.47;4.20;;;;;;;11.43;62.75;97651.75;5185190;28;20050;-73
2021/12/27 12:46:27;;;;;;;7.13;3.80;;;;;;;11.56;62.89;97656.44;5183529;28;20065;-69
2021/12/27 12:49:22;;;;;;;5.88;4.10;;;;;;;11.90;62.32;97663.84;5180419;28;20492;-70
2021/12/27 12:52:12;;;;;;;6.25;4.07;;;;;;;11.67;62.46;97659.44;5179672;28;20269;-70
2021/12/27 12:55:02;;;;;;;7.85;5.13;;;;;;;11.74;62.27;97657.69;5185138;28;20041;-72
2021/12/27 12:57:53;;;;;;;19.05;9.32;;;;;;;12.05;60.49;97654.00;5173962;28;20064;-69
2021/12/27 13:00:43;;;;;;;26.90;13.40;;;;;;;11.89;61.84;97648.94;5182675;28;20187;-71
2021/12/27 13:03:35;;;;;;;14.20;7.28;;;;;;;12.12;61.99;97673.53;5171369;28;20044;-71
2021/12/27 13:06:26;;;;;;;11.68;5.82;;;;;;;11.89;63.08;97671.00;5180722;28;20146;-70
2021/12/27 13:09:16;;;;;;;10.10;4.78;;;;;;;11.93;62.75;97676.78;5178732;28;20168;-69
2021/12/27 13:12:07;;;;;;;9.48;4.72;;;;;;;11.98;62.00;97685.00;5172595;28;20519;-70
2021/12/27 13:15:08;;;;;;;5.07;3.85;;;;;;;11.94;61.97;97671.25;5178140;28;20049;-71
2021/12/27 13:18:12;;;;;;;6.88;4.70;;;;;;;11.77;63.08;97673.25;5183408;28;20072;-69
2021/12/27 13:21:09;;;;;;;7.73;4.50;;;;;;;11.72;61.73;97680.13;5176376;28;20052;-70
2021/12/27 13:24:03;;;;;;;7.53;4.28;;;;;;;11.46;61.92;97664.66;5176632;28;20102;-69